Milwaukee, WI (53207)

3:59 PM CDT on October 01, 2016 (GMT -0500)
Bay View - St Francis | | Change Station

Elev 650 ft 42.98 °N, 87.89 °W | Updated 48 seconds ago

Light Rain
Light Rain Mist
60.1 °F
Feels Like 60.1 °F
N
1.7
Wind Variable Wind from SE

Today
High -- | Low -- °F
--% Chance of Precip.
Yesterday
High -- | Low -- °F
Precip. -- in
Pressure 30.00 in
Visibility 1.5 miles
Clouds Mostly Cloudy 300 ft
Overcast 900 ft
Dew Point 60 °F
Humidity 98%
Rainfall 0.38 in
Snow Depth Not available.
6:49 AM 6:31 PM
New Moon, 1% visible
METAR KMKE 012052Z 03007KT 1 1/2SM -RA BR BKN003 OVC009 16/15 A3000 RMK AO2 SFC VIS 1 3/4 SLP159 P0004 60007 T01610150 55009
Pressure 30.00 in
Visibility 1.5 miles
Clouds Mostly Cloudy 300 ft
Overcast 900 ft
Dew Point 60 °F
Humidity 98%
Rainfall 0.38 in
Snow Depth Not available.
6:49 AM 6:31 PM
New Moon, 1% visible
METAR KMKE 012052Z 03007KT 1 1/2SM -RA BR BKN003 OVC009 16/15 A3000 RMK AO2 SFC VIS 1 3/4 SLP159 P0004 60007 T01610150 55009

10-Day Weather Forecast

Almanac

Astronomy

Oct. 01, 2016 Rise Set
Actual Time
Civil Twilight
Nautical Twilight
Astronomical Twilight
Moon
Length of Visible Light
Length of Day
Tomorrow will be .
, % of the Moon is Illuminated

Today's Extremes

State Highs State Lows

Community

WunderPhotos

Upload Photos

1,943,017 photos uploaded!

WunderBlog® & News

Nearby

Air Quality

  Air Quality AQ Index Pollutant
Not available.

Snow Depth

Station Depth Elevation

Earthquake Activity

City Distance Mag. Time & Date
Minimum magnitude displayed is 2.5.

Coastal Water Temperatures

Place Temperature

Stations

Nearby Weather Stations

Station Location Temp. Windchill Dew Point Humidity Wind Precip. Elev Updated Type
                   

Watches & Warnings

There are currently no watches in effect.